createdAt,value
2022-11-24T00:01:06.991Z,9.13
2022-11-24T00:03:33.715Z,9.15
2022-11-24T00:06:08.883Z,9.15
2022-11-24T00:08:35.604Z,9.15
2022-11-24T00:11:11.457Z,9.13
2022-11-24T00:13:41.217Z,9.11
2022-11-24T00:16:19.687Z,9.10
2022-11-24T00:18:48.266Z,9.10
2022-11-24T00:21:16.766Z,9.09
2022-11-24T00:23:44.279Z,9.09
2022-11-24T00:26:16.595Z,9.08
2022-11-24T00:28:44.315Z,9.09
2022-11-24T00:31:17.845Z,9.08
2022-11-24T00:33:46.178Z,9.09
2022-11-24T00:36:13.037Z,9.10
2022-11-24T00:38:39.523Z,9.08
2022-11-24T00:41:06.414Z,9.07
2022-11-24T00:43:33.291Z,9.07
2022-11-24T00:45:59.907Z,9.05
2022-11-24T00:48:26.548Z,9.07
2022-11-24T00:51:04.426Z,9.07
2022-11-24T00:53:30.971Z,9.06
2022-11-24T00:55:57.393Z,9.07
2022-11-24T00:58:24.707Z,9.07
2022-11-24T01:00:52.386Z,9.06
2022-11-24T01:03:20.210Z,9.03
2022-11-24T01:05:46.756Z,9.00
2022-11-24T01:08:13.142Z,9.01
2022-11-24T01:10:39.754Z,9.03
2022-11-24T01:13:06.258Z,9.02
2022-11-24T01:15:35.583Z,9.00
2022-11-24T01:18:02.772Z,9.00
2022-11-24T01:20:30.486Z,8.99
2022-11-24T01:22:57.001Z,8.99
2022-11-24T01:25:23.663Z,9.00
2022-11-24T01:27:50.079Z,9.01
2022-11-24T01:30:16.768Z,9.00
2022-11-24T01:32:43.134Z,9.00
2022-11-24T01:35:09.922Z,9.01
2022-11-24T01:37:36.301Z,8.98
2022-11-24T01:40:02.727Z,8.96
2022-11-24T01:42:40.310Z,8.99
2022-11-24T01:45:30.959Z,8.99
2022-11-24T01:47:57.512Z,8.98
2022-11-24T01:50:24.575Z,8.97
2022-11-24T01:52:54.154Z,8.98
2022-11-24T01:55:25.623Z,9.00
2022-11-24T01:57:59.292Z,9.01
2022-11-24T02:00:25.865Z,9.00
2022-11-24T02:02:53.008Z,8.99
2022-11-24T02:05:28.223Z,8.98
2022-11-24T02:07:56.894Z,9.00
2022-11-24T02:10:23.645Z,8.97
2022-11-24T02:12:52.495Z,8.98
2022-11-24T02:15:19.988Z,8.96
2022-11-24T02:17:46.388Z,8.96
2022-11-24T02:20:13.957Z,8.94
2022-11-24T02:23:03.336Z,8.94
2022-11-24T02:25:50.400Z,8.92
2022-11-24T02:28:20.852Z,8.90
2022-11-24T02:30:48.190Z,8.90
2022-11-24T02:33:15.231Z,8.89
2022-11-24T02:35:41.998Z,8.89
2022-11-24T02:38:12.656Z,8.88
2022-11-24T02:40:41.247Z,8.88
2022-11-24T02:43:12.343Z,8.88
2022-11-24T02:45:39.038Z,8.84
2022-11-24T02:48:05.834Z,8.86
2022-11-24T02:50:32.438Z,8.85
2022-11-24T02:52:58.815Z,8.87
2022-11-24T02:55:25.421Z,8.84
2022-11-24T02:57:51.871Z,8.85
2022-11-24T03:00:18.750Z,8.86
2022-11-24T03:02:45.289Z,8.85
2022-11-24T03:05:12.591Z,8.84
2022-11-24T03:07:39.130Z,8.84
2022-11-24T03:10:06.187Z,8.83
2022-11-24T03:12:32.588Z,8.84
2022-11-24T03:14:58.992Z,8.80
2022-11-24T03:17:25.396Z,8.81
2022-11-24T03:19:51.773Z,8.81
2022-11-24T03:22:18.193Z,8.80
2022-11-24T03:24:44.625Z,8.80
2022-11-24T03:27:11.010Z,8.82
2022-11-24T03:29:37.367Z,8.78
2022-11-24T03:32:04.012Z,8.81
2022-11-24T03:34:30.412Z,8.81
2022-11-24T03:36:56.811Z,8.80
2022-11-24T03:39:23.194Z,8.80
2022-11-24T03:41:51.376Z,8.81
2022-11-24T03:44:18.264Z,8.83
2022-11-24T03:46:45.104Z,8.80
2022-11-24T03:49:11.632Z,8.80
2022-11-24T03:51:38.003Z,8.84
2022-11-24T03:54:04.515Z,8.84
2022-11-24T03:56:30.923Z,8.83
2022-11-24T03:58:57.292Z,8.82
2022-11-24T04:01:23.688Z,8.86
2022-11-24T04:03:50.134Z,8.82
2022-11-24T04:06:16.536Z,8.82
2022-11-24T04:08:43.447Z,8.81
2022-11-24T04:11:29.869Z,8.83
2022-11-24T04:13:56.256Z,8.80
2022-11-24T04:16:22.624Z,8.82
2022-11-24T04:18:52.138Z,8.81
2022-11-24T04:21:18.592Z,8.80
2022-11-24T04:23:44.982Z,8.83
2022-11-24T04:26:11.415Z,8.83
2022-11-24T04:28:38.456Z,8.82
2022-11-24T04:31:06.231Z,8.81
2022-11-24T04:33:33.084Z,8.81
2022-11-24T04:35:59.523Z,8.80
2022-11-24T04:39:20.051Z,8.81
2022-11-24T04:41:12.166Z,8.80
2022-11-24T04:43:40.734Z,8.78
2022-11-24T04:46:10.563Z,8.78
2022-11-24T04:48:37.106Z,8.79
2022-11-24T04:51:07.104Z,8.74
2022-11-24T04:53:33.487Z,8.75
2022-11-24T04:55:59.868Z,8.75
2022-11-24T04:58:26.172Z,8.74
2022-11-24T05:00:52.500Z,8.73
2022-11-24T05:03:18.843Z,8.72
2022-11-24T05:05:45.163Z,8.68
2022-11-24T05:08:11.539Z,8.69
2022-11-24T05:10:38.003Z,8.68
2022-11-24T05:13:09.782Z,8.67
2022-11-24T05:15:41.375Z,8.68
2022-11-24T05:18:10.633Z,8.66
2022-11-24T05:20:37.289Z,8.63
2022-11-24T05:23:07.851Z,8.64
2022-11-24T05:25:36.228Z,8.64
2022-11-24T05:28:04.965Z,8.64
2022-11-24T05:30:32.256Z,8.64
2022-11-24T05:32:58.807Z,8.65
2022-11-24T05:35:25.426Z,8.65
2022-11-24T05:37:51.888Z,8.64
2022-11-24T05:40:18.504Z,8.64
2022-11-24T05:42:47.960Z,8.66
2022-11-24T05:45:18.342Z,8.66
2022-11-24T05:47:45.343Z,8.67
2022-11-24T05:50:14.651Z,8.67
2022-11-24T05:52:41.084Z,8.70
2022-11-24T05:55:08.714Z,8.70
2022-11-24T05:57:35.142Z,8.75
2022-11-24T06:00:01.892Z,8.71
2022-11-24T06:02:28.329Z,8.69
2022-11-24T06:04:54.753Z,8.73
2022-11-24T06:07:21.216Z,8.77
2022-11-24T06:09:47.657Z,8.80
2022-11-24T06:12:14.155Z,8.79
2022-11-24T06:14:40.875Z,8.79
2022-11-24T06:17:07.736Z,8.83
2022-11-24T06:19:37.371Z,8.84
2022-11-24T06:22:06.393Z,8.89
2022-11-24T06:24:33.036Z,8.91
2022-11-24T06:26:59.636Z,8.91
2022-11-24T06:29:25.989Z,8.95
2022-11-24T06:31:52.524Z,8.95
2022-11-24T06:34:18.996Z,8.97
2022-11-24T06:36:45.322Z,8.98
2022-11-24T06:39:11.703Z,9.00
2022-11-24T06:41:38.109Z,9.00
2022-11-24T06:44:05.047Z,8.97
2022-11-24T06:46:31.542Z,9.02
2022-11-24T06:48:59.614Z,9.07
2022-11-24T06:51:27.071Z,9.07
2022-11-24T06:53:53.837Z,9.09
2022-11-24T06:56:21.093Z,9.10
2022-11-24T06:58:50.732Z,9.13
2022-11-24T07:01:21.991Z,9.13
2022-11-24T07:03:48.905Z,9.12
2022-11-24T07:06:16.369Z,9.14
2022-11-24T07:08:43.511Z,9.18
2022-11-24T07:11:13.174Z,9.17
2022-11-24T07:13:39.591Z,9.17
2022-11-24T07:16:16.352Z,9.15
2022-11-24T07:18:44.603Z,9.18
2022-11-24T07:21:11.454Z,9.18
2022-11-24T07:23:38.325Z,9.21
2022-11-24T07:26:07.027Z,9.18
2022-11-24T07:28:36.727Z,9.18
2022-11-24T07:31:07.833Z,9.21
2022-11-24T07:33:34.474Z,9.21
2022-11-24T07:36:02.067Z,9.24
2022-11-24T07:38:29.258Z,9.23
2022-11-24T07:41:02.207Z,9.25
2022-11-24T07:43:31.150Z,9.24
2022-11-24T07:45:57.601Z,9.24
2022-11-24T07:48:23.982Z,9.23
2022-11-24T07:50:55.522Z,9.24
2022-11-24T07:53:22.546Z,9.25
2022-11-24T07:55:56.525Z,9.26
2022-11-24T07:58:23.017Z,9.27
2022-11-24T08:00:49.422Z,9.25
2022-11-24T08:03:16.200Z,9.22
2022-11-24T08:06:07.931Z,9.25
2022-11-24T08:08:33.253Z,9.25
2022-11-24T08:11:04.752Z,9.25
2022-11-24T08:13:31.078Z,9.24
2022-11-24T08:15:57.414Z,9.24
2022-11-24T08:18:24.606Z,9.25
2022-11-24T08:20:50.970Z,9.25
2022-11-24T08:23:17.406Z,9.26
2022-11-24T08:25:43.764Z,9.26
2022-11-24T08:28:10.163Z,9.29
2022-11-24T08:30:36.580Z,9.28
2022-11-24T08:34:04.063Z,9.33
2022-11-24T08:36:30.800Z,9.40
2022-11-24T08:38:58.996Z,9.42
2022-11-24T08:41:27.072Z,9.43
2022-11-24T08:43:54.455Z,9.41
2022-11-24T08:46:21.241Z,9.41
2022-11-24T08:48:52.071Z,9.41
2022-11-24T08:51:22.277Z,9.42
2022-11-24T08:53:48.662Z,9.42
2022-11-24T08:56:15.203Z,9.42
2022-11-24T08:58:41.900Z,9.43
2022-11-24T09:01:13.861Z,9.46
2022-11-24T09:03:46.534Z,9.41
2022-11-24T09:06:15.797Z,9.37
2022-11-24T09:08:42.682Z,9.40
2022-11-24T09:11:11.873Z,9.44
2022-11-24T09:13:38.870Z,9.45
2022-11-24T09:16:07.949Z,9.46
2022-11-24T09:18:34.582Z,9.45
2022-11-24T09:21:12.947Z,9.48
2022-11-24T09:23:40.107Z,9.50
2022-11-24T09:26:08.279Z,9.54
2022-11-24T09:28:35.233Z,9.55
2022-11-24T09:31:03.645Z,9.56
2022-11-24T09:33:31.607Z,9.57
2022-11-24T09:35:58.609Z,9.62
2022-11-24T09:38:25.661Z,9.64
2022-11-24T09:40:55.877Z,9.66
2022-11-24T09:43:29.997Z,9.68
2022-11-24T09:46:20.131Z,9.72
2022-11-24T09:48:50.981Z,9.78
2022-11-24T09:51:22.344Z,9.81
2022-11-24T09:54:03.199Z,9.82
2022-11-24T09:56:34.377Z,9.88
2022-11-24T09:59:06.285Z,9.92
2022-11-24T10:01:36.977Z,9.94
2022-11-24T10:04:06.715Z,9.95
2022-11-24T10:06:47.986Z,9.97
2022-11-24T10:09:24.049Z,9.99
2022-11-24T10:11:58.670Z,10.05
2022-11-24T10:15:02.431Z,10.03
2022-11-24T10:17:39.165Z,10.09
2022-11-24T10:20:14.516Z,10.08
2022-11-24T10:23:02.269Z,10.09
2022-11-24T10:25:50.065Z,10.14
2022-11-24T10:28:16.575Z,10.16
2022-11-24T10:30:43.256Z,10.14
2022-11-24T10:33:19.570Z,10.11
2022-11-24T10:36:07.912Z,10.13
2022-11-24T10:38:45.580Z,10.13
2022-11-24T10:41:20.094Z,10.19
2022-11-24T10:43:46.552Z,10.21
2022-11-24T10:46:23.856Z,10.26
2022-11-24T10:48:53.580Z,10.26
2022-11-24T10:51:41.551Z,10.31
2022-11-24T10:54:16.964Z,10.40
2022-11-24T10:56:45.232Z,10.46
2022-11-24T10:59:24.569Z,10.49
2022-11-24T11:01:54.784Z,10.55
2022-11-24T11:04:26.643Z,10.61
2022-11-24T11:07:07.743Z,10.66
2022-11-24T11:09:34.398Z,10.72
2022-11-24T11:12:36.296Z,10.76
2022-11-24T11:14:57.364Z,10.80
2022-11-24T11:17:35.037Z,10.83
2022-11-24T11:20:04.541Z,10.87
2022-11-24T11:22:34.807Z,10.92
2022-11-24T11:25:19.985Z,11.00
2022-11-24T11:27:46.423Z,11.03
2022-11-24T11:35:48.459Z,11.11
2022-11-24T11:38:15.129Z,11.18
2022-11-24T11:40:43.748Z,11.23
2022-11-24T11:43:26.357Z,11.30
2022-11-24T11:46:24.505Z,11.36
2022-11-24T11:48:50.898Z,11.41
2022-11-24T11:51:39.021Z,11.47
2022-11-24T11:54:27.111Z,11.53
2022-11-24T11:57:17.497Z,11.53
2022-11-24T11:59:49.562Z,11.51
2022-11-24T12:02:18.997Z,11.54
2022-11-24T12:05:19.435Z,11.63
2022-11-24T12:07:54.373Z,11.69
2022-11-24T12:10:33.486Z,11.74
2022-11-24T12:13:42.606Z,11.79
2022-11-24T12:16:18.902Z,11.83
2022-11-24T12:19:16.093Z,11.89
2022-11-24T12:22:09.430Z,11.94
2022-11-24T12:25:01.748Z,11.95
2022-11-24T12:28:19.465Z,12.02
2022-11-24T12:31:06.822Z,12.07
2022-11-24T12:34:01.555Z,12.08
2022-11-24T12:36:41.247Z,12.10
2022-11-24T12:39:32.204Z,12.12
2022-11-24T12:42:11.715Z,12.13
2022-11-24T12:45:06.156Z,12.16
2022-11-24T12:47:57.226Z,12.18
2022-11-24T12:50:27.860Z,12.18
2022-11-24T12:53:03.859Z,12.20
2022-11-24T12:55:33.695Z,12.21
2022-11-24T12:58:11.231Z,12.20
2022-11-24T13:01:00.135Z,12.20
2022-11-24T13:03:47.817Z,12.20
2022-11-24T13:06:30.275Z,12.21
2022-11-24T13:08:56.910Z,12.21
2022-11-24T13:11:23.280Z,12.21
2022-11-24T13:14:06.225Z,12.22
2022-11-24T13:16:41.098Z,12.21
2022-11-24T13:19:23.242Z,12.20
2022-11-24T13:22:00.911Z,12.20
2022-11-24T13:24:37.038Z,12.20
2022-11-24T13:27:16.015Z,12.19
2022-11-24T13:29:44.921Z,12.18
2022-11-24T13:32:11.756Z,12.19
2022-11-24T13:34:42.559Z,12.19
2022-11-24T13:37:34.388Z,12.17
2022-11-24T13:40:12.064Z,12.18
2022-11-24T13:43:02.473Z,12.16
2022-11-24T13:45:41.550Z,12.16
2022-11-24T13:48:20.209Z,12.16
2022-11-24T13:50:49.929Z,12.14
2022-11-24T13:53:29.256Z,12.14
2022-11-24T13:55:59.489Z,12.14
2022-11-24T13:58:36.090Z,12.14
2022-11-24T14:01:08.503Z,12.14
2022-11-24T14:03:38.771Z,12.13
2022-11-24T14:06:05.866Z,12.12
2022-11-24T14:08:38.168Z,12.12
2022-11-24T14:11:13.078Z,12.11
2022-11-24T14:13:39.432Z,12.11
2022-11-24T14:16:08.757Z,12.10
2022-11-24T14:18:40.783Z,12.11
2022-11-24T14:21:37.751Z,12.11
2022-11-24T14:24:24.821Z,12.11
2022-11-24T14:26:51.600Z,12.10
2022-11-24T14:29:23.310Z,12.10
2022-11-24T14:31:54.772Z,12.09
2022-11-24T14:34:23.151Z,12.05
2022-11-24T14:36:50.742Z,12.04
2022-11-24T14:39:19.771Z,12.03
2022-11-24T14:42:00.318Z,12.02
2022-11-24T14:44:35.043Z,12.02
2022-11-24T14:47:37.238Z,12.02
2022-11-24T14:50:13.708Z,12.01
2022-11-24T14:52:54.693Z,11.99
2022-11-24T14:55:31.876Z,11.99
2022-11-24T14:57:59.624Z,11.97
2022-11-24T15:00:29.356Z,11.97
2022-11-24T15:03:01.758Z,11.96
2022-11-24T15:05:51.818Z,11.93
2022-11-24T15:08:18.517Z,11.93
2022-11-24T15:10:45.258Z,11.90
2022-11-24T15:13:37.063Z,11.88
2022-11-24T15:16:15.003Z,11.88
2022-11-24T15:18:42.887Z,11.87
2022-11-24T15:21:15.558Z,11.86
2022-11-24T15:24:05.338Z,11.84
2022-11-24T15:26:36.904Z,11.84
2022-11-24T15:29:08.217Z,11.82
2022-11-24T15:31:34.676Z,11.81
2022-11-24T15:34:01.531Z,11.79
2022-11-24T15:36:28.007Z,11.79
2022-11-24T15:38:54.351Z,11.80
2022-11-24T15:41:25.618Z,11.79
2022-11-24T15:43:58.705Z,11.77
2022-11-24T15:46:26.697Z,11.76
2022-11-24T15:48:53.878Z,11.75
2022-11-24T15:51:20.866Z,11.74
2022-11-24T15:53:55.776Z,11.73
2022-11-24T15:56:34.455Z,11.73
2022-11-24T15:59:01.649Z,11.72
2022-11-24T16:01:31.660Z,11.69
2022-11-24T16:03:58.302Z,11.68
2022-11-24T16:06:25.604Z,11.65
2022-11-24T16:08:55.388Z,11.62
2022-11-24T16:11:22.741Z,11.59
2022-11-24T16:13:53.018Z,11.57
2022-11-24T16:16:20.811Z,11.54
2022-11-24T16:18:47.288Z,11.51
2022-11-24T16:21:13.721Z,11.52
2022-11-24T16:23:40.161Z,11.49
2022-11-24T16:26:06.647Z,11.48
2022-11-24T16:28:33.028Z,11.46
2022-11-24T16:30:59.558Z,11.45
2022-11-24T16:33:25.974Z,11.45
2022-11-24T16:35:52.391Z,11.43
2022-11-24T16:38:19.989Z,11.42
2022-11-24T16:40:59.156Z,11.39
2022-11-24T16:43:25.517Z,11.39
2022-11-24T16:46:17.836Z,11.38
2022-11-24T16:48:45.635Z,11.38
2022-11-24T16:51:13.479Z,11.36
2022-11-24T16:53:40.598Z,11.35
2022-11-24T16:56:07.106Z,11.33
2022-11-24T16:58:33.542Z,11.32
2022-11-24T17:01:07.973Z,11.30
2022-11-24T17:03:37.826Z,11.30
2022-11-24T17:06:06.465Z,11.29
2022-11-24T17:08:34.818Z,11.28
2022-11-24T17:11:08.352Z,11.27
2022-11-24T17:13:34.689Z,11.23
2022-11-24T17:16:08.898Z,11.21
2022-11-24T17:18:35.638Z,11.20
2022-11-24T17:21:07.708Z,11.17
2022-11-24T17:23:35.780Z,11.16
2022-11-24T17:26:03.780Z,11.16
2022-11-24T17:28:30.252Z,11.15
2022-11-24T17:30:57.034Z,11.15
2022-11-24T17:33:23.577Z,11.13
2022-11-24T17:35:49.886Z,11.08
2022-11-24T17:38:16.250Z,11.10
2022-11-24T17:40:48.756Z,11.09
2022-11-24T17:43:15.150Z,11.07
2022-11-24T17:45:41.580Z,11.05
2022-11-24T17:48:08.324Z,11.05
2022-11-24T17:50:34.817Z,11.02
2022-11-24T17:53:01.126Z,11.01
2022-11-24T17:55:27.535Z,10.97
2022-11-24T17:57:53.901Z,10.98
2022-11-24T18:00:20.551Z,10.97
2022-11-24T18:02:46.973Z,10.93
2022-11-24T18:05:13.425Z,10.91
2022-11-24T18:07:39.833Z,10.92
2022-11-24T18:10:06.611Z,10.92
2022-11-24T18:12:32.931Z,10.90
2022-11-24T18:14:59.774Z,10.89
2022-11-24T18:17:26.137Z,10.87
2022-11-24T18:19:52.510Z,10.86
2022-11-24T18:22:19.128Z,10.83
2022-11-24T18:24:54.616Z,10.81
2022-11-24T18:27:20.950Z,10.80
2022-11-24T18:29:50.877Z,10.77
2022-11-24T18:32:19.837Z,10.76
2022-11-24T18:34:46.197Z,10.75
2022-11-24T18:37:14.723Z,10.74
2022-11-24T18:39:42.312Z,10.73
2022-11-24T18:42:09.458Z,10.72
2022-11-24T18:44:36.849Z,10.69
2022-11-24T18:47:04.443Z,10.66
2022-11-24T18:49:31.891Z,10.66
2022-11-24T18:51:58.746Z,10.66
2022-11-24T18:54:27.778Z,10.65
2022-11-24T18:56:56.683Z,10.62
2022-11-24T18:59:26.638Z,10.62
2022-11-24T19:01:53.165Z,10.64
2022-11-24T19:04:19.577Z,10.63
2022-11-24T19:06:46.151Z,10.60
2022-11-24T19:09:15.461Z,10.59
2022-11-24T19:11:44.123Z,10.58
2022-11-24T19:14:13.393Z,10.56
2022-11-24T19:16:40.756Z,10.54
2022-11-24T19:19:07.456Z,10.54
2022-11-24T19:21:37.034Z,10.53
2022-11-24T19:24:05.910Z,10.53
2022-11-24T19:26:35.824Z,10.54
2022-11-24T19:29:03.003Z,10.52
2022-11-24T19:31:29.344Z,10.50
2022-11-24T19:33:57.873Z,10.50
2022-11-24T19:36:24.410Z,10.47
2022-11-24T19:38:55.462Z,10.49
2022-11-24T19:41:24.532Z,10.50
2022-11-24T19:43:53.322Z,10.48
2022-11-24T19:46:20.583Z,10.44
2022-11-24T19:48:54.119Z,10.43
2022-11-24T19:51:23.108Z,10.43
2022-11-24T19:53:49.838Z,10.42
2022-11-24T19:56:18.904Z,10.42
2022-11-24T19:58:46.043Z,10.42
2022-11-24T20:01:14.680Z,10.38
2022-11-24T20:03:42.441Z,10.36
2022-11-24T20:06:10.970Z,10.38
2022-11-24T20:08:39.089Z,10.36
2022-11-24T20:11:11.067Z,10.34
2022-11-24T20:13:39.748Z,10.33
2022-11-24T20:16:10.605Z,10.30
2022-11-24T20:18:42.266Z,10.32
2022-11-24T20:21:14.914Z,10.29
2022-11-24T20:23:41.872Z,10.30
2022-11-24T20:26:11.800Z,10.26
2022-11-24T20:28:38.322Z,10.23
2022-11-24T20:31:07.483Z,10.24
2022-11-24T20:33:35.478Z,10.22
2022-11-24T20:36:07.036Z,10.24
2022-11-24T20:38:34.425Z,10.22
2022-11-24T20:41:09.034Z,10.20
2022-11-24T20:43:36.373Z,10.17
2022-11-24T20:46:10.776Z,10.14
2022-11-24T20:48:38.109Z,10.13
2022-11-24T20:51:05.669Z,10.13
2022-11-24T20:53:32.127Z,10.13
2022-11-24T20:56:06.398Z,10.14
2022-11-24T20:58:35.268Z,10.13
2022-11-24T21:01:15.952Z,10.14
2022-11-24T21:03:45.251Z,10.11
2022-11-24T21:06:13.049Z,10.11
2022-11-24T21:08:41.648Z,10.09
2022-11-24T21:11:11.071Z,10.10
2022-11-24T21:13:39.289Z,10.10
2022-11-24T21:16:16.979Z,10.07
2022-11-24T21:18:44.690Z,10.07
2022-11-24T21:21:12.521Z,10.09
2022-11-24T21:23:39.364Z,10.08
2022-11-24T21:26:11.505Z,10.08
2022-11-24T21:28:42.811Z,10.06
2022-11-24T21:31:15.432Z,10.05
2022-11-24T21:33:44.857Z,10.01
2022-11-24T21:36:12.757Z,10.01
2022-11-24T21:38:39.157Z,9.99
2022-11-24T21:41:07.122Z,10.00
2022-11-24T21:43:34.202Z,10.03
2022-11-24T21:46:11.337Z,10.02
2022-11-24T21:48:38.681Z,10.03
2022-11-24T21:51:08.480Z,10.01
2022-11-24T21:53:36.878Z,9.99
2022-11-24T21:56:09.807Z,9.98
2022-11-24T21:58:36.525Z,10.00
2022-11-24T22:01:05.174Z,9.98
2022-11-24T22:03:31.713Z,9.98
2022-11-24T22:05:59.817Z,10.00
2022-11-24T22:08:27.669Z,10.00
2022-11-24T22:10:59.539Z,9.99
2022-11-24T22:13:25.863Z,10.00
2022-11-24T22:16:03.254Z,9.99
2022-11-24T22:18:31.981Z,9.98
2022-11-24T22:20:58.759Z,9.95
2022-11-24T22:23:25.189Z,9.97
2022-11-24T22:25:51.595Z,9.94
2022-11-24T22:28:18.288Z,9.94
2022-11-24T22:30:44.603Z,9.94
2022-11-24T22:33:11.145Z,9.94
2022-11-24T22:35:37.497Z,9.94
2022-11-24T22:38:03.800Z,9.94
2022-11-24T22:40:30.146Z,9.93
2022-11-24T22:42:58.220Z,9.94
2022-11-24T22:45:24.705Z,9.92
2022-11-24T22:47:55.023Z,9.91
2022-11-24T22:50:21.497Z,9.91
2022-11-24T22:52:49.965Z,9.89
2022-11-24T22:55:16.484Z,9.91
2022-11-24T22:57:47.437Z,9.90
2022-11-24T23:00:16.210Z,9.89
2022-11-24T23:02:42.745Z,9.89
2022-11-24T23:05:09.543Z,9.88
2022-11-24T23:07:36.091Z,9.89
2022-11-24T23:10:03.026Z,9.90
2022-11-24T23:12:29.382Z,9.91
2022-11-24T23:14:55.709Z,9.89
2022-11-24T23:17:22.102Z,9.89
2022-11-24T23:19:48.549Z,9.89
2022-11-24T23:22:14.873Z,9.88
2022-11-24T23:24:41.229Z,9.88
2022-11-24T23:27:07.598Z,9.88
2022-11-24T23:29:33.942Z,9.87
2022-11-24T23:32:00.418Z,9.88
2022-11-24T23:36:53.230Z,9.90
2022-11-24T23:39:19.585Z,9.91
2022-11-24T23:41:45.964Z,9.91
2022-11-24T23:44:12.294Z,9.90
2022-11-24T23:46:38.691Z,9.88
2022-11-24T23:49:05.034Z,9.88
2022-11-24T23:51:33.305Z,9.87
2022-11-24T23:54:00.516Z,9.88
2022-11-24T23:56:31.419Z,9.89
2022-11-24T23:58:58.161Z,9.89
